Aviation Digital Data Service (ADDS)

Output produced by METARs form (2344 UTC 23 May 2022)
found at http://www.aviationweather.gov/metar/data/
 
KOAJ 232338Z 2400/2424 07006KT P6SM VCSH SCT015 BKN035 
     FM240200 08005KT P6SM VCSH SCT007 OVC012 
     FM240400 09005KT P6SM SCT004 OVC007 
     FM241400 13005KT P6SM VCSH OVC012 
     FM241700 17008KT 6SM -SHRA VCTS BKN015CB AMD LTD TO CLD VIS AND WIND
       
KOAK 232340Z 2400/2506 28014KT P6SM FEW200 
     FM240300 28009KT P6SM SKC 
     FM240600 31004KT P6SM SKC 
     FM241300 VRB03KT P6SM SKC WS020/02025KT 
     FM241700 29005KT P6SM SKC 
     FM242000 28012KT P6SM SKC 
     FM250300 30006KT P6SM SKC
       
KOFK 232320Z 2400/2424 12010KT P6SM VCSH OVC100 
     TEMPO 2402/2406 6SM -SHRA BR OVC035 
     FM240600 07007KT P6SM OVC060 
     FM241800 10012KT 6SM -SHRA BR OVC040 
     FM242100 10014KT 3SM SHRA BR OVC025
       
KOGB 232339Z 2400/2424 22009KT 6SM -SHRA BR BKN040 BKN100 
     TEMPO 2400/2402 VRB15G25KT 2SM TSRA BKN025CB BKN040 
     FM240300 VRB04KT P6SM BKN100 
     FM240800 VRB02KT 3SM BR BKN007 OVC015 
     FM241500 24007KT P6SM BKN050 
     FM242200 23008KT P6SM VCSH SCT035 BKN100
       
KOGD 232320Z 2400/2424 30008KT P6SM BKN250 
     FM240400 14005KT P6SM SCT250 
     FM241600 33005KT P6SM FEW100 
     FM241900 33011KT P6SM FEW100 FEW250
       
KOKC 232324Z 2400/2424 05009KT 6SM -TSRA BR OVC006CB 
     TEMPO 2400/2404 2SM TSRA BR 
     FM240400 11008KT 4SM -RA BR OVC007 
     TEMPO 2410/2414 2SM TSRA BR BKN004 OVC015CB 
     FM241400 12009KT 4SM -RA BR OVC007
       
KOLF 232320Z 2400/2424 VRB03KT P6SM SKC 
     FM241800 14007KT P6SM SCT080
       
KOLM 232339Z 2400/2424 25010KT P6SM SCT025 BKN040 
     FM240600 VRB02KT P6SM OVC035 
     FM241800 20003KT P6SM OVC070
       
KOLS 232320Z 2400/2424 24014G24KT P6SM SKC 
     FM240400 VRB05KT P6SM SKC 
     FM241700 23006KT P6SM SKC 
     FM241900 27012G22KT P6SM SKC
       
KOMA 232320Z 2400/2424 12010KT P6SM FEW070 OVC120 
     FM240600 07008KT P6SM VCSH OVC050 
     FM241500 11010KT 4SM -SHRA BR OVC030 
     FM241700 09011G20KT 2SM SHRA BR OVC020
       
KONP 232342Z 2400/2424 31009G15KT P6SM BKN015 
     FM240100 34009G15KT P6SM OVC012 
     FM240400 VRB03KT P6SM SCT008 OVC012 
     FM241600 28007KT P6SM FEW012 SCT060 BKN100
       
KONT 232340Z 2400/2506 26011KT P6SM SKC 
     FM240500 VRB05KT P6SM SKC 
     FM242000 25012KT P6SM FEW250 
     FM250500 VRB04KT P6SM SCT250
       
KOPF 232320Z 2400/2424 11014G22KT P6SM SCT025 SCT050 
     FM240200 11009KT P6SM FEW020 SCT250 
     FM241400 12014KT P6SM SCT025
       
KORD 232330Z 2400/2506 02011KT P6SM FEW060 OVC150 
     FM240300 04007KT P6SM FEW060 BKN150 
     FM241400 08011G17KT P6SM SCT070 BKN150
       
KORF 232320Z 2400/2424 07008KT 6SM -SHRA OVC050 
     FM241200 09010G17KT 6SM -SHRA OVC020 
     FM241500 08014G22KT 3SM SHRA OVC006
       
KORH 232320Z 2400/2424 02010KT P6SM SCT200 
     FM240200 02006KT P6SM BKN200 
     FM241300 06007KT P6SM BKN250 
     FM241600 09006KT P6SM SCT120
       
KOTH 232320Z 2400/2424 35015G22KT P6SM SKC 
     FM240300 35009KT P6SM SCT005 
     FM240500 01004KT 3SM BR VCFG OVC005 
     FM241700 34008KT P6SM SCT050
       
KOTM 232325Z 2400/2424 05011KT P6SM BKN120 
     FM241300 09009G17KT P6SM VCSH BKN090 
     FM241600 08011KT 6SM -SHRA BR OVC090 
     FM241800 08012KT P6SM OVC080
       
KOUN 232324Z 2400/2424 07008KT P6SM OVC004 
     TEMPO 2400/2404 2SM TSRA BR BKN004 OVC015CB 
     FM240400 11008KT 4SM -RA BR OVC007 
     TEMPO 2410/2414 2SM TSRA BR BKN004 OVC015CB 
     FM241400 12009KT 4SM -RA BR OVC007
       
KOWB 232320Z 2400/2424 06007KT P6SM BKN070 
     FM240500 VRB03KT P6SM SCT026 
     FM240600 VRB03KT P6SM BKN035 
     FM241500 07007KT P6SM SCT016 
     FM242100 09009KT P6SM SCT040 
     FM242300 10009KT P6SM SCT120
       
KOXR 232337Z 2400/2424 25010KT P6SM BKN015 
     FM240300 VRB03KT P6SM OVC010 
     FM240800 VRB03KT 5SM BR OVC006 
     FM241500 VRB03KT P6SM OVC010 
     FM241800 24010KT P6SM BKN012
       
TAF AMD KOZR 231940Z 2319/2422 23009KT 9999 VCTS SCT025CB BKN120 BKN250
QNH2995INS 
     TEMPO 2318/2320 VRB20G35KT 3200 TSRA SCT008 BKN025 BKN120 
     BECMG 2401/2402 24007KT 9999 NSW FEW010 SCT020 BKN120 QNH3000INS 
     BECMG 2403/2404 VRB05KT 9999 NSW BKN006 QNH3001INS 
     BECMG 2413/2414 16007KT 9999 SCT012 BKN020 QNH3002INS 
     BECMG 2417/2418 17009KT 9999 VCTS BKN030CB BKN200 QNH2996INS TX29/2319Z
TN19/2411Z